Terminal Aerodrome Forecast
Issued by NWS

Home | Current Version | Previous Version | Text Only | Print | Product List | Glossary On
Versions: 1 2 3 4 5 6 7 8 9 10 11 12 13 14 15 16 17 18 19 20 21 22 23 24 25 26
000
FTUS45 KGJT 231201 RRA
TAFMTJ
TAF
KMTJ 231201Z 2312/2412 12007KT P6SM VCSH SCT070 OVC090
      TEMPO 2312/2315 VRB10KT -SHRA BKN060
     FM231500 19007KT P6SM VCSH SCT070 OVC090
     FM231600 29009KT P6SM VCTS SCT080CB BKN120
     FM240100 25009KT P6SM BKN120
     FM240500 13005KT P6SM SCT120=

USA.gov is the U.S. government's official web portal to all federal, state and local government web resources and services.